Time,TemperatureF,DewpointF,PressureIn,WindDirection,WindDirectionDegrees,WindSpeedMPH,WindSpeedGustMPH,Humidity,HourlyPrecipIn,Conditions,Clouds,dailyrainin,SoftwareType,DateUTC
2013-02-15 00:00:00,33.6,26.4,30.16,West,280,0.0,19.6,75,0.00,,---,0.00,VWS V12.08,2013-02-15 05:00:00,
2013-02-15 00:05:00,58.8,58.8,30.14,East,90,0.0,0.0,100,0.00,,---,0.00,VWS V12.08,2013-02-15 05:05:00,
2013-02-15 00:10:00,38.6,34.7,29.98,SW,215,7.0,10.8,86,4.16,,---,0.01,VWS V12.08,2013-02-15 05:10:00,
2013-02-15 00:15:00,38.8,35.0,29.98,South,176,0.0,10.8,86,4.16,,---,0.01,VWS V12.08,2013-02-15 05:15:00,
2013-02-15 00:20:00,41.4,39.5,30.53,North,10,5.1,13.7,93,0.00,,---,0.00,VWS V12.08,2013-02-15 05:20:00,
2013-02-15 00:25:00,38.6,32.4,30.27,North,4,0.0,0.0,78,0.00,,---,0.00,VWS V12.08,2013-02-15 05:25:00,
2013-02-15 00:30:00,58.8,58.8,30.14,East,90,0.0,0.0,100,0.00,,---,0.00,VWS V12.08,2013-02-15 05:30:00,
2013-02-15 00:35:00,33.3,33.3,29.77,NNW,328,0.0,24.4,100,0.22,,---,0.22,VWS V12.08,2013-02-15 05:35:00,
2013-02-15 00:40:00,58.9,58.9,30.15,East,90,0.0,17.2,100,0.00,,---,0.00,VWS V12.08,2013-02-15 05:40:00,
2013-02-15 00:45:00,38.0,34.7,29.99,South,190,5.4,10.8,88,4.16,,---,0.01,VWS V12.08,2013-02-15 05:45:00,
2013-02-15 00:50:00,38.0,34.8,29.99,South,169,0.0,0.0,88,4.16,,---,0.01,VWS V12.08,2013-02-15 05:50:00,
2013-02-15 00:55:00,38.1,35.0,29.99,SSE,165,0.0,0.0,88,4.16,,---,0.00,VWS V12.08,2013-02-15 05:55:00,
2013-02-15 01:00:00,37.9,34.9,29.99,NNE,17,0.0,0.0,89,4.16,,---,0.00,VWS V12.08,2013-02-15 06:00:00,
2013-02-15 01:05:00,37.8,34.9,29.99,South,177,4.8,10.8,89,4.16,,---,0.00,VWS V12.08,2013-02-15 06:05:00,
2013-02-15 01:10:00,41.4,39.5,30.51,NNW,330,5.0,10.5,93,0.00,,---,0.00,VWS V12.08,2013-02-15 06:10:00,
2013-02-15 01:15:00,42.6,37.9,29.75,WSW,250,0.0,11.9,83,0.00,,---,0.00,VWS V12.08,2013-02-15 06:15:00,
2013-02-15 01:20:00,36.7,28.2,30.04,North,359,6.6,12.1,71,0.00,,---,0.00,VWS V12.08,2013-02-15 06:20:00,
2013-02-15 01:25:00,40.8,35.9,29.94,WSW,242,3.4,9.1,83,0.00,,---,0.00,VWS V12.08,2013-02-15 06:25:00,
2013-02-15 01:30:00,37.7,35.3,29.98,SW,224,6.6,0.0,91,4.16,,---,0.00,VWS V12.08,2013-02-15 06:30:00,
2013-02-15 01:35:00,36.7,28.2,30.04,North,359,6.6,12.1,71,0.00,,---,0.00,VWS V12.08,2013-02-15 06:35:00,
2013-02-15 01:39:00,37.4,35.1,29.98,South,180,3.1,0.0,91,4.16,,---,0.00,VWS V12.08,2013-02-15 06:39:00,
2013-02-15 01:44:00,42.8,38.0,29.96,WNW,287,0.0,17.9,83,0.00,,---,0.00,VWS V12.08,2013-02-15 06:44:00,
2013-02-15 01:49:00,43.0,38.3,29.75,SW,236,4.7,12.3,83,0.00,,---,0.00,VWS V12.08,2013-02-15 06:49:00,
2013-02-15 01:54:00,44.8,38.8,29.74,West,267,7.5,17.2,79,0.00,,---,0.00,VWS V12.08,2013-02-15 06:54:00,
2013-02-15 01:59:00,37.4,35.3,29.98,South,174,0.0,0.0,92,4.16,,---,0.00,VWS V12.08,2013-02-15 06:59:00,
2013-02-15 02:04:00,37.4,35.3,29.98,SSE,159,4.9,10.8,92,4.16,,---,0.00,VWS V12.08,2013-02-15 07:04:00,
2013-02-15 02:09:00,46.6,38.0,29.71,West,276,17.2,18.0,72,0.00,,---,0.00,VWS V12.08,2013-02-15 07:09:00,
2013-02-15 02:14:00,37.0,35.0,29.98,South,180,3.5,10.8,92,4.16,,---,0.00,VWS V12.08,2013-02-15 07:14:00,
2013-02-15 02:19:00,37.3,35.3,29.98,SSE,166,5.2,10.8,92,4.16,,---,0.00,VWS V12.08,2013-02-15 07:19:00,
2013-02-15 02:24:00,37.5,35.6,29.98,South,188,6.1,10.8,93,4.16,,---,0.00,VWS V12.08,2013-02-15 07:24:00,
2013-02-15 02:29:00,37.4,35.5,29.97,South,170,0.0,10.8,93,4.16,,---,0.00,VWS V12.08,2013-02-15 07:29:00,
2013-02-15 02:34:00,37.7,35.8,29.97,SSW,211,0.0,10.8,93,4.16,,---,0.00,VWS V12.08,2013-02-15 07:34:00,
2013-02-15 02:39:00,37.2,35.3,29.97,SSW,194,7.0,10.8,93,4.16,,---,0.00,VWS V12.08,2013-02-15 07:39:00,
2013-02-15 02:44:00,37.6,35.8,29.97,South,181,0.0,10.8,93,4.16,,---,0.00,VWS V12.08,2013-02-15 07:44:00,
2013-02-15 02:49:00,37.3,35.5,29.97,SW,221,4.3,10.8,93,4.16,,---,0.00,VWS V12.08,2013-02-15 07:49:00,
2013-02-15 02:54:00,36.9,35.1,29.98,SSW,210,8.7,10.8,93,4.16,,---,0.00,VWS V12.08,2013-02-15 07:54:00,
2013-02-15 02:59:00,37.2,35.4,29.97,SW,218,4.5,10.8,93,4.16,,---,0.00,VWS V12.08,2013-02-15 07:59:00,
2013-02-15 03:04:00,37.0,35.2,29.98,SSW,211,4.5,10.8,93,4.16,,---,0.00,VWS V12.08,2013-02-15 08:04:00,
2013-02-15 03:09:00,36.9,35.2,29.98,SSW,198,4.5,10.8,94,4.16,,---,0.00,VWS V12.08,2013-02-15 08:09:00,
2013-02-15 03:14:00,37.0,35.3,29.97,SSW,201,0.0,10.8,94,4.16,,---,0.00,VWS V12.08,2013-02-15 08:14:00,
2013-02-15 03:19:00,36.8,35.2,29.97,SSE,165,6.2,10.8,94,4.16,,---,0.00,VWS V12.08,2013-02-15 08:19:00,
2013-02-15 03:24:00,36.5,34.9,29.97,SSE,158,6.2,10.8,94,4.16,,---,0.00,VWS V12.08,2013-02-15 08:24:00,
2013-02-15 03:29:00,36.7,35.1,29.97,SSW,205,7.6,10.8,94,4.16,,---,0.00,VWS V12.08,2013-02-15 08:29:00,
2013-02-15 03:34:00,36.6,35.0,29.97,South,172,5.9,10.8,94,4.16,,---,0.00,VWS V12.08,2013-02-15 08:34:00,
2013-02-15 03:39:00,36.7,35.2,29.97,SSW,205,7.8,10.8,94,4.16,,---,0.00,VWS V12.08,2013-02-15 08:39:00,
2013-02-15 03:44:00,36.4,34.9,29.97,SSE,167,3.2,10.8,94,4.16,,---,0.00,VWS V12.08,2013-02-15 08:44:00,
2013-02-15 03:49:00,36.3,34.9,29.97,SE,142,7.0,10.8,94,4.16,,---,0.00,VWS V12.08,2013-02-15 08:49:00,
2013-02-15 03:54:00,35.9,34.5,29.96,SSE,160,6.0,10.8,95,4.16,,---,0.00,VWS V12.08,2013-02-15 08:54:00,
2013-02-15 03:59:00,35.7,34.4,29.97,South,179,5.9,12.3,95,4.16,,---,0.00,VWS V12.08,2013-02-15 08:59:00,
2013-02-15 04:04:00,36.1,34.8,29.97,SSW,207,4.2,12.3,95,4.16,,---,0.00,VWS V12.08,2013-02-15 09:04:00,
2013-02-15 04:09:00,36.0,34.7,29.97,SW,226,3.0,12.3,95,4.16,,---,0.00,VWS V12.08,2013-02-15 09:09:00,
2013-02-15 04:14:00,36.1,34.9,29.97,South,191,6.5,12.3,95,4.16,,---,0.00,VWS V12.08,2013-02-15 09:14:00,
2013-02-15 04:19:00,35.9,34.7,29.97,SSW,210,3.2,12.3,95,4.16,,---,0.00,VWS V12.08,2013-02-15 09:19:00,
2013-02-15 04:24:00,35.9,34.7,29.97,SSW,201,7.6,12.3,96,4.16,,---,0.00,VWS V12.08,2013-02-15 09:24:00,
2013-02-15 04:29:00,36.0,34.9,29.97,SSW,202,4.4,12.3,96,4.16,,---,0.00,VWS V12.08,2013-02-15 09:29:00,
2013-02-15 04:34:00,35.9,34.8,29.97,SSW,212,4.4,12.3,96,4.16,,---,0.00,VWS V12.08,2013-02-15 09:34:00,
2013-02-15 04:39:00,35.6,34.5,29.98,NNE,15,4.5,12.3,96,4.16,,---,0.00,VWS V12.08,2013-02-15 09:39:00,
2013-02-15 04:44:00,35.7,34.7,29.98,South,169,4.7,12.3,96,4.16,,---,0.00,VWS V12.08,2013-02-15 09:44:00,
2013-02-15 04:49:00,35.5,34.5,29.98,South,186,5.6,12.3,96,4.16,,---,0.00,VWS V12.08,2013-02-15 09:49:00,
2013-02-15 04:54:00,35.3,34.3,29.98,SSE,165,6.2,12.3,96,4.16,,---,0.00,VWS V12.08,2013-02-15 09:54:00,
2013-02-15 04:59:00,36.2,35.3,29.98,South,170,8.1,12.3,96,4.16,,---,0.00,VWS V12.08,2013-02-15 09:59:00,
2013-02-15 05:04:00,35.4,34.5,29.98,South,186,8.6,12.3,97,4.16,,---,0.00,VWS V12.08,2013-02-15 10:04:00,
2013-02-15 05:09:00,35.6,34.8,29.97,SSW,198,7.4,12.3,97,4.16,,---,0.00,VWS V12.08,2013-02-15 10:09:00,
2013-02-15 05:14:00,35.8,35.0,29.97,SE,145,6.0,12.3,97,4.16,,---,0.00,VWS V12.08,2013-02-15 10:14:00,
2013-02-15 05:19:00,35.7,34.9,29.97,South,180,7.4,12.3,97,4.16,,---,0.00,VWS V12.08,2013-02-15 10:19:00,
2013-02-15 05:24:00,36.0,35.2,29.97,SW,219,3.0,12.3,97,4.16,,---,0.00,VWS V12.08,2013-02-15 10:24:00,
2013-02-15 05:29:00,35.8,35.0,29.97,SW,215,6.2,12.3,97,4.16,,---,0.00,VWS V12.08,2013-02-15 10:29:00,
2013-02-15 05:34:00,35.7,35.0,29.97,South,180,4.3,12.3,97,4.16,,---,0.00,VWS V12.08,2013-02-15 10:34:00,
2013-02-15 05:39:00,35.9,35.2,29.97,South,191,7.8,12.3,97,4.16,,---,0.00,VWS V12.08,2013-02-15 10:39:00,
2013-02-15 05:44:00,35.8,35.1,29.97,SSW,200,3.4,12.3,97,4.16,,---,0.00,VWS V12.08,2013-02-15 10:44:00,
2013-02-15 05:49:00,35.6,34.9,29.97,South,179,6.2,12.3,97,4.16,,---,0.00,VWS V12.08,2013-02-15 10:49:00,
2013-02-15 05:54:00,35.7,35.0,29.97,South,184,8.5,12.3,97,4.16,,---,0.00,VWS V12.08,2013-02-15 10:54:00,
2013-02-15 05:59:00,35.5,34.9,29.97,South,188,6.3,12.3,98,4.16,,---,0.00,VWS V12.08,2013-02-15 10:59:00,
2013-02-15 06:04:00,35.7,35.1,29.97,SE,145,0.0,12.3,98,4.16,,---,0.00,VWS V12.08,2013-02-15 11:04:00,
2013-02-15 06:09:00,35.7,35.1,29.97,South,186,5.0,12.3,98,4.16,,---,0.00,VWS V12.08,2013-02-15 11:09:00,
2013-02-15 06:14:00,35.6,35.0,29.97,South,179,3.2,12.3,98,4.16,,---,0.00,VWS V12.08,2013-02-15 11:14:00,
2013-02-15 06:19:00,39.3,32.1,30.12,WNW,297,4.8,10.8,75,0.00,,---,0.00,VWS V12.08,2013-02-15 11:19:00,
2013-02-15 06:24:00,35.6,35.1,29.97,SW,221,2.8,12.3,98,4.16,,---,0.00,VWS V12.08,2013-02-15 11:24:00,
2013-02-15 06:29:00,35.7,35.2,29.97,SSW,201,0.0,12.3,98,4.16,,---,0.00,VWS V12.08,2013-02-15 11:29:00,
2013-02-15 06:34:00,35.5,35.0,29.97,SSW,205,5.7,12.3,98,4.16,,---,0.00,VWS V12.08,2013-02-15 11:34:00,
2013-02-15 06:39:00,35.2,34.7,29.97,SW,235,4.7,12.3,98,4.16,,---,0.00,VWS V12.08,2013-02-15 11:39:00,
2013-02-15 06:44:00,35.4,34.9,29.97,SSW,200,4.2,12.3,98,4.16,,---,0.00,VWS V12.08,2013-02-15 11:44:00,
2013-02-15 06:49:00,35.4,34.9,29.97,South,174,4.2,12.3,98,4.16,,---,0.00,VWS V12.08,2013-02-15 11:49:00,
2013-02-15 06:54:00,35.3,34.9,29.97,SSW,194,6.2,12.3,98,4.16,,---,0.00,VWS V12.08,2013-02-15 11:54:00,
2013-02-15 06:59:00,34.8,34.4,29.97,South,179,4.8,12.3,98,4.16,,---,0.00,VWS V12.08,2013-02-15 11:59:00,
2013-02-15 07:04:00,35.3,34.9,29.97,SSE,152,2.8,12.3,98,4.16,,---,0.00,VWS V12.08,2013-02-15 12:04:00,
2013-02-15 07:09:00,35.1,34.8,29.97,South,169,6.1,12.3,99,4.16,,---,0.00,VWS V12.08,2013-02-15 12:09:00,
2013-02-15 07:14:00,35.1,34.8,29.98,South,176,2.7,12.3,99,4.16,,---,0.00,VWS V12.08,2013-02-15 12:14:00,
2013-02-15 07:19:00,35.0,34.7,29.98,SW,218,5.0,12.3,99,4.16,,---,0.00,VWS V12.08,2013-02-15 12:19:00,
2013-02-15 07:24:00,34.9,34.6,29.98,SSW,202,5.7,12.3,99,4.16,,---,0.00,VWS V12.08,2013-02-15 12:24:00,
2013-02-15 07:29:00,35.5,27.2,30.22,West,277,11.2,30.0,71,0.14,,---,0.01,VWS V12.08,2013-02-15 12:29:00,
2013-02-15 07:34:00,35.4,35.2,29.98,South,179,9.3,12.3,99,4.16,,---,0.00,VWS V12.08,2013-02-15 12:34:00,
2013-02-15 07:39:00,35.3,35.1,29.99,South,169,7.0,12.3,99,4.16,,---,0.00,VWS V12.08,2013-02-15 12:39:00,
2013-02-15 07:44:00,35.4,35.2,29.99,SSW,195,0.0,12.3,99,4.16,,---,0.00,VWS V12.08,2013-02-15 12:44:00,
2013-02-15 07:49:00,35.5,35.3,29.99,SE,138,5.2,12.3,99,4.16,,---,0.00,VWS V12.08,2013-02-15 12:49:00,
2013-02-15 07:54:00,35.8,35.6,29.99,SSE,153,3.3,12.3,99,4.16,,---,0.00,VWS V12.08,2013-02-15 12:54:00,
2013-02-15 07:59:00,35.8,35.6,29.99,SSW,197,7.4,12.3,99,4.16,,---,0.00,VWS V12.08,2013-02-15 12:59:00,
2013-02-15 08:04:00,36.1,35.9,29.99,SSW,212,4.3,12.3,99,4.16,,---,0.00,VWS V12.08,2013-02-15 13:04:00,
2013-02-15 08:09:00,36.4,36.2,30.00,SW,233,3.1,12.3,99,4.16,,---,0.00,VWS V12.08,2013-02-15 13:09:00,
2013-02-15 08:14:00,36.5,36.3,30.00,South,183,0.0,12.3,99,4.16,,---,0.00,VWS V12.08,2013-02-15 13:14:00,
2013-02-15 08:19:00,36.7,36.5,29.99,SSW,195,3.0,12.3,99,4.16,,---,0.00,VWS V12.08,2013-02-15 13:19:00,
2013-02-15 08:24:00,37.0,36.7,29.99,South,190,5.7,12.3,99,4.16,,---,0.00,VWS V12.08,2013-02-15 13:24:00,
2013-02-15 08:29:00,37.6,37.2,29.99,South,180,4.2,12.3,99,4.16,,---,0.00,VWS V12.08,2013-02-15 13:29:00,
2013-02-15 08:34:00,37.8,37.4,29.99,SSW,195,3.2,12.3,98,4.16,,---,0.00,VWS V12.08,2013-02-15 13:34:00,
2013-02-15 08:39:00,37.9,37.4,30.00,North,6,3.1,12.3,98,4.16,,---,0.00,VWS V12.08,2013-02-15 13:39:00,
2013-02-15 08:44:00,38.5,37.9,29.99,SSE,163,9.2,12.3,98,4.16,,---,0.00,VWS V12.08,2013-02-15 13:44:00,
2013-02-15 08:49:00,38.7,38.0,29.99,South,190,0.0,12.3,97,4.16,,---,0.00,VWS V12.08,2013-02-15 13:49:00,
2013-02-15 08:54:00,38.9,38.0,29.99,South,179,5.5,12.3,97,4.16,,---,0.00,VWS V12.08,2013-02-15 13:54:00,
2013-02-15 08:59:00,39.2,38.2,29.99,South,190,4.5,12.3,96,4.16,,---,0.00,VWS V12.08,2013-02-15 13:59:00,
2013-02-15 09:04:00,39.5,38.4,29.99,South,174,6.6,0.0,96,4.16,,---,0.00,VWS V12.08,2013-02-15 14:04:00,
2013-02-15 09:09:00,39.6,38.4,29.99,South,181,7.3,0.0,95,4.16,,---,0.00,VWS V12.08,2013-02-15 14:09:00,
2013-02-15 09:14:00,39.6,38.3,29.99,South,179,0.0,0.0,95,4.16,,---,0.00,VWS V12.08,2013-02-15 14:14:00,
2013-02-15 09:19:00,40.1,38.7,29.99,SSE,165,7.1,12.3,95,4.16,,---,0.00,VWS V12.08,2013-02-15 14:19:00,
2013-02-15 09:24:00,40.3,38.8,29.99,South,174,4.5,12.3,94,4.16,,---,0.00,VWS V12.08,2013-02-15 14:24:00,
2013-02-15 09:29:00,41.1,39.5,29.99,SSW,202,6.0,12.3,94,4.16,,---,0.00,VWS V12.08,2013-02-15 14:29:00,
2013-02-15 09:34:00,41.7,39.9,29.99,SW,229,4.1,12.3,93,4.16,,---,0.00,VWS V12.08,2013-02-15 14:34:00,
2013-02-15 09:39:00,42.7,40.5,29.99,South,181,6.7,0.0,92,4.16,,---,0.00,VWS V12.08,2013-02-15 14:39:00,
2013-02-15 09:44:00,43.4,41.0,29.99,South,184,7.0,12.3,91,4.16,,---,0.00,VWS V12.08,2013-02-15 14:44:00,
2013-02-15 09:49:00,43.9,41.1,29.99,SSE,165,3.4,12.3,90,4.16,,---,0.00,VWS V12.08,2013-02-15 14:49:00,
2013-02-15 09:54:00,44.8,41.4,29.99,SSE,153,7.8,12.3,88,4.16,,---,0.00,VWS V12.08,2013-02-15 14:54:00,
2013-02-15 09:59:00,45.4,41.3,29.99,SSE,153,8.0,12.3,86,4.16,,---,0.00,VWS V12.08,2013-02-15 14:59:00,
2013-02-15 10:04:00,45.8,41.3,29.99,South,170,7.7,0.0,84,4.16,,---,0.00,VWS V12.08,2013-02-15 15:04:00,
2013-02-15 10:09:00,46.1,41.2,29.99,SSW,202,6.2,0.0,83,4.16,,---,0.00,VWS V12.08,2013-02-15 15:09:00,
2013-02-15 10:14:00,46.2,41.0,29.99,South,180,5.8,0.0,82,4.16,,---,0.00,VWS V12.08,2013-02-15 15:14:00,
2013-02-15 10:19:00,46.8,41.3,29.99,SSE,163,6.0,0.0,81,4.16,,---,0.00,VWS V12.08,2013-02-15 15:19:00,
2013-02-15 10:24:00,47.0,41.2,29.99,SW,228,5.6,0.0,80,4.16,,---,0.00,VWS V12.08,2013-02-15 15:24:00,
2013-02-15 10:29:00,47.5,41.3,29.99,SSW,207,4.7,12.3,79,4.16,,---,0.00,VWS V12.08,2013-02-15 15:29:00,
2013-02-15 10:34:00,47.5,41.0,29.99,South,181,7.1,12.3,78,4.16,,---,0.00,VWS V12.08,2013-02-15 15:34:00,
2013-02-15 10:39:00,28.5,22.4,30.16,WSW,250,3.4,30.4,78,0.03,,---,0.03,VWS V12.08,2013-02-15 15:39:00,
2013-02-15 10:44:00,29.3,28.0,30.01,WNW,291,0.0,0.0,95,0.00,,---,0.00,VWS V12.08,2013-02-15 15:44:00,
2013-02-15 10:49:00,35.2,35.2,29.90,North,350,3.3,8.0,100,0.12,,---,0.12,VWS V12.08,2013-02-15 15:49:00,
2013-02-15 10:54:00,36.0,26.8,29.93,West,263,2.1,12.0,69,0.00,,---,0.00,VWS V12.08,2013-02-15 15:54:00,
2013-02-15 10:59:00,37.7,35.5,29.32,West,280,6.8,13.3,92,1.03,,---,1.03,VWS V12.08,2013-02-15 15:59:00,
2013-02-15 11:04:00,44.4,40.6,29.62,WSW,239,13.3,18.0,86,0.54,,---,0.50,VWS V12.08,2013-02-15 16:04:00,
2013-02-15 11:09:00,45.2,45.2,29.96,NNW,339,0.0,8.5,100,0.27,,---,0.27,VWS V12.08,2013-02-15 16:09:00,
2013-02-15 11:14:00,37.9,32.4,30.20,SSW,208,0.0,15.5,80,0.00,,---,0.00,VWS V12.08,2013-02-15 16:14:00,
2013-02-15 11:19:00,50.7,41.6,29.98,South,191,3.1,12.3,71,4.16,,---,0.00,VWS V12.08,2013-02-15 16:19:00,
2013-02-15 11:24:00,41.2,36.4,30.18,NNW,330,0.0,21.1,83,0.08,,---,0.05,VWS V12.08,2013-02-15 16:24:00,
2013-02-15 11:29:00,45.0,45.0,29.97,North,359,6.3,15.2,100,0.53,,---,0.27,VWS V12.08,2013-02-15 16:29:00,
2013-02-15 11:34:00,52.4,52.4,29.93,SSE,162,4.3,11.6,100,0.13,,---,0.13,VWS V12.08,2013-02-15 16:34:00,
2013-02-15 11:39:00,40.7,40.7,30.39,NNW,328,4.3,6.5,100,0.00,,---,0.00,VWS V12.08,2013-02-15 16:39:00,
2013-02-15 11:44:00,39.2,31.7,30.29,WSW,245,4.7,9.6,74,0.00,,---,0.00,VWS V12.08,2013-02-15 16:44:00,
2013-02-15 11:49:00,36.4,29.6,30.22,WNW,295,0.0,0.0,76,0.00,,---,0.00,VWS V12.08,2013-02-15 16:49:00,
2013-02-15 11:54:00,36.3,24.0,29.83,WNW,283,10.6,26.2,60,0.00,,---,0.00,VWS V12.08,2013-02-15 16:54:00,
2013-02-15 11:59:00,42.1,33.3,30.20,NNW,343,3.4,5.8,71,0.00,,---,0.00,VWS V12.08,2013-02-15 16:59:00,
2013-02-15 12:04:00,39.5,38.9,30.21,NW,315,0.0,15.0,98,0.00,,---,0.00,VWS V12.08,2013-02-15 17:04:00,
2013-02-15 12:09:00,40.2,35.9,30.60,North,353,5.0,16.1,84,0.00,,---,0.00,VWS V12.08,2013-02-15 17:09:00,
2013-02-15 12:14:00,38.8,32.6,30.28,North,4,0.0,14.5,78,0.00,,---,0.00,VWS V12.08,2013-02-15 17:14:00,
2013-02-15 12:19:00,49.7,49.3,30.43,SE,142,0.0,5.6,99,0.00,,---,0.00,VWS V12.08,2013-02-15 17:19:00,
2013-02-15 12:24:00,33.1,33.1,29.76,NW,308,5.1,14.2,100,0.22,,---,0.22,VWS V12.08,2013-02-15 17:24:00,
2013-02-15 12:29:00,33.6,26.4,30.16,West,280,0.0,19.6,75,0.00,,---,0.00,VWS V12.08,2013-02-15 17:29:00,
2013-02-15 12:33:00,42.7,37.6,29.75,NW,307,9.3,16.6,82,0.00,,---,0.00,VWS V12.08,2013-02-15 17:33:00,
2013-02-15 12:38:00,44.5,38.0,29.74,WNW,301,10.5,17.8,78,0.00,,---,0.00,VWS V12.08,2013-02-15 17:38:00,
2013-02-15 12:43:00,44.7,38.6,29.74,West,266,10.4,15.9,79,0.00,,---,0.00,VWS V12.08,2013-02-15 17:43:00,
2013-02-15 12:48:00,46.3,38.0,29.72,WSW,253,14.3,21.3,73,0.00,,---,0.00,VWS V12.08,2013-02-15 17:48:00,
2013-02-15 12:53:00,46.6,38.0,29.71,West,276,17.2,18.0,72,0.00,,---,0.00,VWS V12.08,2013-02-15 17:53:00,
2013-02-15 12:58:00,55.0,39.0,29.93,SW,214,7.1,13.3,55,4.16,,---,0.00,VWS V12.08,2013-02-15 17:58:00,
2013-02-15 13:03:00,55.1,39.8,29.93,South,177,8.9,13.3,56,4.16,,---,0.00,VWS V12.08,2013-02-15 18:03:00,
2013-02-15 13:08:00,55.3,39.6,29.93,SSW,201,6.9,13.3,55,4.16,,---,0.00,VWS V12.08,2013-02-15 18:08:00,
2013-02-15 13:13:00,55.3,39.1,29.92,South,183,11.9,14.3,54,4.16,,---,0.00,VWS V12.08,2013-02-15 18:13:00,
2013-02-15 13:18:00,55.6,39.1,29.92,WSW,252,8.0,14.3,54,4.16,,---,0.00,VWS V12.08,2013-02-15 18:18:00,
2013-02-15 13:23:00,55.2,38.7,29.92,South,170,6.4,14.3,54,4.16,,---,0.00,VWS V12.08,2013-02-15 18:23:00,
2013-02-15 13:28:00,55.3,38.9,29.92,South,174,6.2,14.3,54,4.16,,---,0.00,VWS V12.08,2013-02-15 18:28:00,
2013-02-15 13:33:00,55.5,39.2,29.92,South,183,8.5,14.3,54,4.16,,---,0.00,VWS V12.08,2013-02-15 18:33:00,
2013-02-15 13:38:00,55.5,39.4,29.92,SSE,153,8.0,14.3,54,4.16,,---,0.00,VWS V12.08,2013-02-15 18:38:00,
2013-02-15 13:43:00,55.0,39.0,29.92,SE,146,4.3,14.3,55,4.16,,---,0.00,VWS V12.08,2013-02-15 18:43:00,
2013-02-15 13:48:00,55.0,38.6,29.91,South,172,8.9,14.5,54,4.16,,---,0.00,VWS V12.08,2013-02-15 18:48:00,
2013-02-15 13:53:00,54.8,38.1,29.91,SE,139,5.7,16.7,53,4.16,,---,0.00,VWS V12.08,2013-02-15 18:53:00,
2013-02-15 13:58:00,55.2,38.9,29.91,SSW,198,5.5,16.7,54,4.16,,---,0.00,VWS V12.08,2013-02-15 18:58:00,
2013-02-15 14:03:00,54.9,38.2,29.90,SSW,208,16.2,16.7,53,4.16,,---,0.00,VWS V12.08,2013-02-15 19:03:00,
2013-02-15 14:08:00,55.1,37.9,29.90,SSE,149,15.7,17.0,52,4.16,,---,0.00,VWS V12.08,2013-02-15 19:08:00,
2013-02-15 14:13:00,55.0,37.9,29.90,SSW,198,13.0,17.0,52,4.16,,---,0.00,VWS V12.08,2013-02-15 19:13:00,
2013-02-15 14:18:00,55.2,38.2,29.90,SSW,204,5.7,17.4,53,4.16,,---,0.00,VWS V12.08,2013-02-15 19:18:00,
2013-02-15 14:23:00,55.4,37.5,29.89,SSW,197,8.4,17.4,51,4.16,,---,0.00,VWS V12.08,2013-02-15 19:23:00,
2013-02-15 14:28:00,55.2,37.6,29.89,SSE,150,7.6,17.4,51,4.16,,---,0.00,VWS V12.08,2013-02-15 19:28:00,
2013-02-15 14:33:00,55.3,37.5,29.89,South,188,10.7,17.4,51,4.16,,---,0.00,VWS V12.08,2013-02-15 19:33:00,
2013-02-15 14:38:00,55.3,37.2,29.89,South,177,6.1,17.4,50,4.16,,---,0.00,VWS V12.08,2013-02-15 19:38:00,
2013-02-15 14:43:00,55.6,37.6,29.89,South,176,6.5,17.4,51,4.16,,---,0.00,VWS V12.08,2013-02-15 19:43:00,
2013-02-15 14:48:00,55.6,37.2,29.89,SW,222,10.7,17.4,50,4.16,,---,0.00,VWS V12.08,2013-02-15 19:48:00,
2013-02-15 14:53:00,36.7,23.7,29.83,West,259,8.8,15.3,59,0.00,,---,0.00,VWS V12.08,2013-02-15 19:53:00,
2013-02-15 14:58:00,55.5,37.1,29.89,SW,221,8.5,17.4,50,4.16,,---,0.00,VWS V12.08,2013-02-15 19:58:00,
2013-02-15 15:03:00,55.4,37.4,29.89,South,172,5.0,17.4,51,4.16,,---,0.00,VWS V12.08,2013-02-15 20:03:00,
2013-02-15 15:08:00,55.4,37.5,29.89,South,188,7.1,17.4,51,4.16,,---,0.00,VWS V12.08,2013-02-15 20:08:00,
2013-02-15 15:13:00,55.3,37.2,29.89,SW,235,11.9,17.4,50,4.16,,---,0.00,VWS V12.08,2013-02-15 20:13:00,
2013-02-15 15:18:00,55.2,36.5,29.89,SSW,207,6.3,17.4,49,4.16,,---,0.00,VWS V12.08,2013-02-15 20:18:00,
2013-02-15 15:23:00,55.3,36.2,29.89,SE,142,14.4,17.8,48,4.16,,---,0.00,VWS V12.08,2013-02-15 20:23:00,
2013-02-15 15:28:00,55.5,37.1,29.89,ESE,107,0.0,17.8,50,4.16,,---,0.00,VWS V12.08,2013-02-15 20:28:00,
2013-02-15 15:33:00,55.2,39.8,29.89,SE,141,5.8,17.8,56,4.16,,---,0.00,VWS V12.08,2013-02-15 20:33:00,
2013-02-15 15:38:00,54.5,40.7,29.89,SE,131,6.6,17.8,60,4.16,,---,0.00,VWS V12.08,2013-02-15 20:38:00,
2013-02-15 15:43:00,36.8,36.8,30.18,North,354,0.0,7.7,100,0.55,,---,0.55,VWS V12.08,2013-02-15 20:43:00,
2013-02-15 15:48:00,53.7,41.8,29.89,ESE,103,0.0,17.8,64,4.16,,---,0.00,VWS V12.08,2013-02-15 20:48:00,
2013-02-15 15:53:00,53.1,41.6,29.89,SE,127,7.2,17.8,65,4.16,,---,0.00,VWS V12.08,2013-02-15 20:53:00,
2013-02-15 15:58:00,28.5,22.4,30.16,WSW,250,3.4,30.4,78,0.03,,---,0.03,VWS V12.08,2013-02-15 20:58:00,
2013-02-15 16:03:00,52.1,41.7,29.89,SE,132,6.5,17.8,68,4.16,,---,0.00,VWS V12.08,2013-02-15 21:03:00,
2013-02-15 16:08:00,51.9,42.0,29.89,SE,139,5.5,17.8,69,4.16,,---,0.00,VWS V12.08,2013-02-15 21:08:00,
2013-02-15 16:13:00,37.6,35.2,29.32,South,180,0.0,45.1,91,1.13,,---,1.03,VWS V12.08,2013-02-15 21:13:00,
2013-02-15 16:18:00,51.5,42.2,29.89,East,87,0.0,0.0,70,4.16,,---,0.00,VWS V12.08,2013-02-15 21:18:00,
2013-02-15 16:23:00,39.6,39.6,29.46,North,8,15.7,30.4,100,1.42,,---,1.42,VWS V12.08,2013-02-15 21:23:00,
2013-02-15 16:28:00,44.5,40.9,29.61,West,280,8.8,26.0,87,0.94,,---,0.50,VWS V12.08,2013-02-15 21:28:00,
2013-02-15 16:33:00,50.9,42.6,29.90,East,84,4.7,17.8,73,4.16,,---,0.00,VWS V12.08,2013-02-15 21:33:00,
2013-02-15 16:38:00,37.8,33.1,30.39,NW,304,4.4,8.1,83,0.00,,---,0.00,VWS V12.08,2013-02-15 21:38:00,
2013-02-15 16:43:00,50.7,42.9,29.89,SE,128,4.5,17.8,75,4.16,,---,0.00,VWS V12.08,2013-02-15 21:43:00,
2013-02-15 16:48:00,50.8,43.2,29.89,SE,135,5.2,0.0,75,4.16,,---,0.00,VWS V12.08,2013-02-15 21:48:00,
2013-02-15 16:53:00,28.5,22.4,30.16,WSW,250,3.4,30.4,78,0.03,,---,0.03,VWS V12.08,2013-02-15 21:53:00,
2013-02-15 16:58:00,50.3,43.1,29.90,East,96,5.8,17.8,76,4.16,,---,0.00,VWS V12.08,2013-02-15 21:58:00,
2013-02-15 17:03:00,49.9,42.9,29.90,SE,124,0.0,17.8,77,4.16,,---,0.00,VWS V12.08,2013-02-15 22:03:00,
2013-02-15 17:08:00,49.7,43.0,29.90,SE,124,0.0,17.8,78,4.16,,---,0.00,VWS V12.08,2013-02-15 22:08:00,
2013-02-15 17:13:00,49.5,43.0,29.90,ENE,60,0.0,0.0,78,4.16,,---,0.00,VWS V12.08,2013-02-15 22:13:00,
2013-02-15 17:18:00,49.5,43.2,29.90,ESE,108,0.0,0.0,79,4.16,,---,0.00,VWS V12.08,2013-02-15 22:18:00,
2013-02-15 17:23:00,32.4,32.1,29.58,WNW,298,9.2,24.0,99,0.00,,---,0.00,VWS V12.08,2013-02-15 22:23:00,
2013-02-15 17:28:00,49.1,43.2,29.90,East,84,0.0,0.0,80,4.16,,---,0.00,VWS V12.08,2013-02-15 22:28:00,
2013-02-15 17:33:00,32.4,32.1,29.58,WNW,298,9.2,24.0,99,0.00,,---,0.00,VWS V12.08,2013-02-15 22:33:00,
2013-02-15 17:38:00,37.6,35.2,29.32,South,180,0.0,45.1,91,1.13,,---,1.03,VWS V12.08,2013-02-15 22:38:00,
2013-02-15 17:43:00,39.3,39.3,29.46,North,1,10.8,31.8,100,1.39,,---,1.33,VWS V12.08,2013-02-15 22:43:00,
2013-02-15 17:48:00,47.3,47.3,30.23,NW,322,0.0,5.5,100,0.00,,---,0.00,VWS V12.08,2013-02-15 22:48:00,
2013-02-15 17:53:00,45.0,45.0,29.97,North,359,6.3,15.2,100,0.53,,---,0.27,VWS V12.08,2013-02-15 22:53:00,
2013-02-15 17:58:00,37.9,32.4,30.20,SSW,208,0.0,15.5,80,0.00,,---,0.00,VWS V12.08,2013-02-15 22:58:00,
2013-02-15 18:03:00,39.8,32.2,30.12,NNW,347,0.0,27.2,74,0.54,,---,0.00,VWS V12.08,2013-02-15 23:03:00,
2013-02-15 18:08:00,39.9,35.8,30.61,NW,322,0.0,6.6,85,0.00,,---,0.00,VWS V12.08,2013-02-15 23:08:00,
2013-02-15 18:13:00,38.9,31.6,30.29,WSW,252,5.8,18.4,75,0.04,,---,0.00,VWS V12.08,2013-02-15 23:13:00,
2013-02-15 18:18:00,47.5,42.9,29.89,ENE,68,0.0,17.8,84,4.16,,---,0.00,VWS V12.08,2013-02-15 23:18:00,
2013-02-15 18:23:00,37.7,32.5,30.21,SSW,208,0.0,0.0,81,0.00,,---,0.00,VWS V12.08,2013-02-15 23:23:00,
2013-02-15 18:28:00,35.5,27.2,30.22,West,277,11.2,30.0,71,0.14,,---,0.01,VWS V12.08,2013-02-15 23:28:00,
2013-02-15 18:33:00,42.3,42.3,29.99,NNW,346,0.0,0.0,100,0.27,,---,0.27,VWS V12.08,2013-02-15 23:33:00,
2013-02-15 18:38:00,46.5,42.6,29.89,ENE,68,0.0,0.0,86,4.16,,---,0.00,VWS V12.08,2013-02-15 23:38:00,
2013-02-15 18:43:00,43.2,39.8,30.11,North,359,5.2,6.1,88,0.00,,---,0.00,VWS V12.08,2013-02-15 23:43:00,
2013-02-15 18:48:00,45.7,42.2,29.89,ENE,68,0.0,0.0,87,4.16,,---,0.00,VWS V12.08,2013-02-15 23:48:00,
2013-02-15 18:53:00,45.7,42.3,29.89,ENE,68,0.0,0.0,88,4.16,,---,0.00,VWS V12.08,2013-02-15 23:53:00,
2013-02-15 18:58:00,42.1,33.3,30.20,NNW,343,3.4,5.8,71,0.00,,---,0.00,VWS V12.08,2013-02-15 23:58:00,
2013-02-15 19:03:00,49.4,48.1,29.64,SW,214,1.6,8.3,95,0.00,,---,0.00,VWS V12.08,2013-02-16 00:03:00,
2013-02-15 19:08:00,42.2,33.6,30.20,North,359,0.0,13.9,71,0.00,,---,0.00,VWS V12.08,2013-02-16 00:08:00,
2013-02-15 19:13:00,33.6,26.4,30.16,West,280,0.0,19.6,75,0.00,,---,0.00,VWS V12.08,2013-02-16 00:13:00,
2013-02-15 19:18:00,37.2,32.8,30.42,NNE,18,3.2,9.1,84,0.00,,---,0.00,VWS V12.08,2013-02-16 00:18:00,
2013-02-15 19:23:00,42.6,38.5,30.18,SW,231,0.0,23.0,85,0.40,,---,0.00,VWS V12.08,2013-02-16 00:23:00,
2013-02-15 19:28:00,44.2,41.7,29.89,ENE,68,0.0,0.0,91,4.16,,---,0.00,VWS V12.08,2013-02-16 00:28:00,
2013-02-15 19:33:00,42.7,37.6,29.75,NW,307,9.3,16.6,82,0.00,,---,0.00,VWS V12.08,2013-02-16 00:33:00,
2013-02-15 19:38:00,36.7,28.2,30.04,North,359,6.6,12.1,71,0.00,,---,0.00,VWS V12.08,2013-02-16 00:38:00,
2013-02-15 19:43:00,44.5,38.0,29.74,WNW,298,11.1,15.2,78,0.00,,---,0.00,VWS V12.08,2013-02-16 00:43:00,
2013-02-15 19:48:00,42.7,37.6,29.75,NW,307,9.3,16.6,82,0.00,,---,0.00,VWS V12.08,2013-02-16 00:48:00,
2013-02-15 19:52:00,43.8,41.5,29.89,ENE,68,0.0,17.8,92,4.16,,---,0.00,VWS V12.08,2013-02-16 00:52:00,
2013-02-15 19:57:00,44.7,38.6,29.74,West,266,10.4,15.9,79,0.00,,---,0.00,VWS V12.08,2013-02-16 00:57:00,
2013-02-15 20:03:00,43.4,41.3,29.90,ENE,68,0.0,0.0,92,4.16,,---,0.00,VWS V12.08,2013-02-16 01:03:00,
2013-02-15 20:08:00,43.7,41.7,29.90,ENE,68,0.0,0.0,92,4.16,,---,0.00,VWS V12.08,2013-02-16 01:08:00,
2013-02-15 20:12:00,44.5,38.0,29.74,WNW,301,10.5,17.8,78,0.00,,---,0.00,VWS V12.08,2013-02-16 01:12:00,
2013-02-15 20:17:00,44.7,38.6,29.74,West,266,10.4,15.9,79,0.00,,---,0.00,VWS V12.08,2013-02-16 01:17:00,
2013-02-15 20:22:00,46.6,38.0,29.71,West,276,17.2,18.0,72,0.00,,---,0.00,VWS V12.08,2013-02-16 01:22:00,
2013-02-15 20:27:00,43.6,41.8,29.89,ENE,68,0.0,17.8,93,4.16,,---,0.00,VWS V12.08,2013-02-16 01:27:00,
2013-02-15 20:32:00,43.6,41.8,29.89,ENE,68,0.0,17.8,93,4.16,,---,0.00,VWS V12.08,2013-02-16 01:32:00,
2013-02-15 20:37:00,43.8,42.0,29.90,ENE,68,0.0,17.8,93,4.16,,---,0.00,VWS V12.08,2013-02-16 01:37:00,
2013-02-15 20:42:00,44.1,42.3,29.89,ENE,68,0.0,17.8,93,4.16,,---,0.00,VWS V12.08,2013-02-16 01:42:00,
2013-02-15 20:47:00,43.9,42.1,29.90,ENE,68,0.0,17.8,93,4.16,,---,0.00,VWS V12.08,2013-02-16 01:47:00,
2013-02-15 20:52:00,44.2,42.4,29.90,ENE,68,0.0,17.8,93,4.16,,---,0.00,VWS V12.08,2013-02-16 01:52:00,
2013-02-15 20:57:00,44.2,42.4,29.90,ENE,68,0.0,17.8,93,4.16,,---,0.00,VWS V12.08,2013-02-16 01:57:00,
2013-02-15 21:02:00,44.4,42.6,29.90,ENE,68,0.0,17.8,93,4.16,,---,0.00,VWS V12.08,2013-02-16 02:02:00,
2013-02-15 21:07:00,44.4,42.5,29.90,SSW,194,3.1,17.8,93,4.16,,---,0.00,VWS V12.08,2013-02-16 02:07:00,
2013-02-15 21:12:00,44.8,42.5,29.90,NW,318,3.4,17.8,92,4.16,,---,0.00,VWS V12.08,2013-02-16 02:12:00,
2013-02-15 21:17:00,44.7,41.8,29.90,NW,315,5.3,17.8,90,4.16,,---,0.00,VWS V12.08,2013-02-16 02:17:00,
2013-02-15 21:22:00,45.0,41.2,29.90,North,359,0.0,17.8,86,4.16,,---,0.00,VWS V12.08,2013-02-16 02:22:00,
2013-02-15 21:27:00,45.0,40.4,29.90,NNW,347,0.0,17.8,84,4.16,,---,0.00,VWS V12.08,2013-02-16 02:27:00,
2013-02-15 21:32:00,45.3,40.4,29.90,NNW,347,0.0,17.8,83,4.16,,---,0.00,VWS V12.08,2013-02-16 02:32:00,
2013-02-15 21:37:00,45.3,39.9,29.90,NNE,21,2.2,17.8,81,4.16,,---,0.00,VWS V12.08,2013-02-16 02:37:00,
2013-02-15 21:42:00,45.2,39.4,29.90,NNE,21,0.0,17.8,80,4.16,,---,0.00,VWS V12.08,2013-02-16 02:42:00,
2013-02-15 21:47:00,45.4,39.1,29.90,North,359,3.4,17.8,78,4.16,,---,0.00,VWS V12.08,2013-02-16 02:47:00,
2013-02-15 21:52:00,45.6,38.8,29.90,NW,307,4.3,17.8,77,4.16,,---,0.00,VWS V12.08,2013-02-16 02:52:00,
2013-02-15 21:57:00,45.6,38.5,29.91,NNW,333,0.0,17.8,76,4.16,,---,0.00,VWS V12.08,2013-02-16 02:57:00,
2013-02-15 22:02:00,45.6,38.1,29.91,WNW,301,5.5,17.8,75,4.16,,---,0.00,VWS V12.08,2013-02-16 03:02:00,
2013-02-15 22:07:00,45.6,37.7,29.91,NW,304,0.0,17.8,74,4.16,,---,0.00,VWS V12.08,2013-02-16 03:07:00,
2013-02-15 22:12:00,45.7,37.5,29.91,WNW,302,6.5,17.8,73,4.16,,---,0.00,VWS V12.08,2013-02-16 03:12:00,
2013-02-15 22:17:00,45.5,36.9,29.91,NW,325,0.0,17.8,72,4.16,,---,0.00,VWS V12.08,2013-02-16 03:17:00,
2013-02-15 22:22:00,45.4,36.7,29.91,WNW,301,0.0,17.8,71,4.16,,---,0.00,VWS V12.08,2013-02-16 03:22:00,
2013-02-15 22:27:00,45.5,36.6,29.92,NW,311,0.0,17.8,71,4.16,,---,0.00,VWS V12.08,2013-02-16 03:27:00,
2013-02-15 22:32:00,45.5,36.3,29.92,NW,312,5.3,17.8,70,4.16,,---,0.00,VWS V12.08,2013-02-16 03:32:00,
2013-02-15 22:37:00,45.5,36.1,29.92,NNW,332,5.7,17.8,70,4.16,,---,0.00,VWS V12.08,2013-02-16 03:37:00,
2013-02-15 22:42:00,45.5,36.0,29.92,WNW,294,6.6,17.8,69,4.16,,---,0.00,VWS V12.08,2013-02-16 03:42:00,
2013-02-15 22:47:00,45.6,35.7,29.93,NW,319,10.2,17.8,68,4.16,,---,0.00,VWS V12.08,2013-02-16 03:47:00,
2013-02-15 22:52:00,45.8,35.7,29.93,WNW,288,16.5,17.9,68,4.16,,---,0.00,VWS V12.08,2013-02-16 03:52:00,
2013-02-15 22:57:00,45.6,36.4,29.93,West,266,14.8,17.9,70,4.16,,---,0.00,VWS V12.08,2013-02-16 03:57:00,
2013-02-15 23:02:00,28.5,22.4,30.16,WSW,250,3.4,30.4,78,0.03,,---,0.03,VWS V12.08,2013-02-16 04:02:00,
2013-02-15 23:07:00,45.0,37.3,29.94,WNW,291,13.8,17.9,74,4.16,,---,0.00,VWS V12.08,2013-02-16 04:07:00,
2013-02-15 23:12:00,44.4,37.3,29.93,West,276,9.4,17.9,76,4.16,,---,0.00,VWS V12.08,2013-02-16 04:12:00,
2013-02-15 23:17:00,44.3,37.7,29.93,WNW,288,16.2,19.7,77,4.16,,---,0.00,VWS V12.08,2013-02-16 04:17:00,
2013-02-15 23:22:00,43.9,37.7,29.93,NW,312,14.4,0.0,79,4.16,,---,0.00,VWS V12.08,2013-02-16 04:22:00,
2013-02-15 23:27:00,43.7,38.0,29.92,NNW,332,7.8,19.7,80,4.16,,---,0.00,VWS V12.08,2013-02-16 04:27:00,
2013-02-15 23:32:00,39.3,32.1,30.12,WNW,297,4.8,10.8,75,0.00,,---,0.00,VWS V12.08,2013-02-16 04:32:00,
2013-02-15 23:37:00,43.4,38.4,29.94,West,281,15.6,19.7,82,4.16,,---,0.00,VWS V12.08,2013-02-16 04:37:00,
2013-02-15 23:42:00,42.9,38.3,29.93,NW,308,14.2,19.7,84,4.16,,---,0.00,VWS V12.08,2013-02-16 04:42:00,
2013-02-15 23:47:00,42.8,38.5,29.94,West,260,6.2,19.7,85,4.16,,---,0.00,VWS V12.08,2013-02-16 04:47:00,
2013-02-15 23:52:00,42.5,38.5,29.94,WNW,302,6.8,19.7,86,4.16,,---,0.00,VWS V12.08,2013-02-16 04:52:00,
2013-02-15 23:57:00,42.5,38.7,29.95,WNW,294,8.6,19.7,86,4.16,,---,0.00,VWS V12.08,2013-02-16 04:57:00,